sensor_id;sensor_type;location;lat;lon;timestamp;pressure;altitude;pressure_sealevel;temperature;humidity
81961;BME280;71462;50.650;6.888;2023-12-28T00:00:06;99404.66;;;6.37;64.76
81961;BME280;71462;50.650;6.888;2023-12-28T00:02:34;99412.97;;;5.78;67.25
81961;BME280;71462;50.650;6.888;2023-12-28T00:05:02;99412.31;;;6.18;66.13
81961;BME280;71462;50.650;6.888;2023-12-28T00:07:30;99399.59;;;6.35;65.84
81961;BME280;71462;50.650;6.888;2023-12-28T00:09:58;99406.28;;;6.43;65.54
81961;BME280;71462;50.650;6.888;2023-12-28T00:12:26;99408.78;;;5.92;67.80
81961;BME280;71462;50.650;6.888;2023-12-28T00:14:53;99385.94;;;5.86;69.10
81961;BME280;71462;50.650;6.888;2023-12-28T00:17:22;99386.25;;;5.99;68.93
81961;BME280;71462;50.650;6.888;2023-12-28T00:19:50;99389.66;;;5.80;69.91
81961;BME280;71462;50.650;6.888;2023-12-28T00:22:18;99392.78;;;5.72;70.80
81961;BME280;71462;50.650;6.888;2023-12-28T00:24:46;99393.47;;;5.47;71.87
81961;BME280;71462;50.650;6.888;2023-12-28T00:27:13;99403.28;;;6.09;70.83
81961;BME280;71462;50.650;6.888;2023-12-28T00:29:41;99397.25;;;5.61;72.55
81961;BME280;71462;50.650;6.888;2023-12-28T00:32:09;99399.19;;;5.28;74.61
81961;BME280;71462;50.650;6.888;2023-12-28T00:34:38;99399.34;;;5.54;73.45
81961;BME280;71462;50.650;6.888;2023-12-28T00:37:06;99410.50;;;5.61;73.56
81961;BME280;71462;50.650;6.888;2023-12-28T00:39:34;99421.50;;;5.90;71.46
81961;BME280;71462;50.650;6.888;2023-12-28T00:42:03;99427.00;;;5.73;72.71
81961;BME280;71462;50.650;6.888;2023-12-28T00:44:31;99439.19;;;5.22;74.51
81961;BME280;71462;50.650;6.888;2023-12-28T00:46:58;99427.56;;;5.28;75.45
81961;BME280;71462;50.650;6.888;2023-12-28T00:49:26;99424.94;;;5.90;72.77
81961;BME280;71462;50.650;6.888;2023-12-28T00:51:55;99420.97;;;5.93;71.96
81961;BME280;71462;50.650;6.888;2023-12-28T00:54:23;99418.94;;;6.10;71.50
81961;BME280;71462;50.650;6.888;2023-12-28T00:56:52;99419.53;;;6.38;70.33
81961;BME280;71462;50.650;6.888;2023-12-28T00:59:19;99428.75;;;6.10;71.17
81961;BME280;71462;50.650;6.888;2023-12-28T01:01:47;99431.31;;;5.89;72.34
81961;BME280;71462;50.650;6.888;2023-12-28T01:04:15;99433.09;;;5.74;73.26
81961;BME280;71462;50.650;6.888;2023-12-28T01:06:43;99434.66;;;6.37;70.88
81961;BME280;71462;50.650;6.888;2023-12-28T01:09:12;99434.59;;;6.17;70.84
81961;BME280;71462;50.650;6.888;2023-12-28T01:11:40;99429.56;;;6.15;71.47
81961;BME280;71462;50.650;6.888;2023-12-28T01:14:08;99430.75;;;5.77;73.40
81961;BME280;71462;50.650;6.888;2023-12-28T01:16:35;99450.38;;;5.76;73.43
81961;BME280;71462;50.650;6.888;2023-12-28T01:19:05;99466.22;;;5.66;73.84
81961;BME280;71462;50.650;6.888;2023-12-28T01:21:33;99471.88;;;5.80;73.67
81961;BME280;71462;50.650;6.888;2023-12-28T01:24:01;99459.53;;;6.16;72.32
81961;BME280;71462;50.650;6.888;2023-12-28T01:26:30;99459.66;;;6.46;70.27
81961;BME280;71462;50.650;6.888;2023-12-28T01:28:58;99468.97;;;6.69;70.00
81961;BME280;71462;50.650;6.888;2023-12-28T01:31:28;99481.22;;;5.97;71.73
81961;BME280;71462;50.650;6.888;2023-12-28T01:33:55;99474.34;;;6.07;72.36
81961;BME280;71462;50.650;6.888;2023-12-28T01:36:23;99479.13;;;6.05;72.25
81961;BME280;71462;50.650;6.888;2023-12-28T01:38:52;99484.41;;;5.94;72.60
81961;BME280;71462;50.650;6.888;2023-12-28T01:41:20;99489.19;;;5.97;72.77
81961;BME280;71462;50.650;6.888;2023-12-28T01:43:49;99494.72;;;5.86;73.29
81961;BME280;71462;50.650;6.888;2023-12-28T01:46:18;99481.56;;;6.16;72.06
81961;BME280;71462;50.650;6.888;2023-12-28T01:48:49;99490.63;;;6.20;72.37
81961;BME280;71462;50.650;6.888;2023-12-28T01:51:17;99471.50;;;6.18;72.30
81961;BME280;71462;50.650;6.888;2023-12-28T01:53:45;99479.88;;;5.95;73.49
81961;BME280;71462;50.650;6.888;2023-12-28T01:56:15;99476.66;;;6.60;70.83
81961;BME280;71462;50.650;6.888;2023-12-28T01:58:44;99483.81;;;5.82;74.12
81961;BME280;71462;50.650;6.888;2023-12-28T02:01:15;99492.25;;;6.37;72.22
81961;BME280;71462;50.650;6.888;2023-12-28T02:03:43;99507.91;;;6.33;72.17
81961;BME280;71462;50.650;6.888;2023-12-28T02:06:13;99500.81;;;6.59;71.40
81961;BME280;71462;50.650;6.888;2023-12-28T02:08:42;99517.28;;;6.46;71.86
81961;BME280;71462;50.650;6.888;2023-12-28T02:11:10;99517.25;;;5.88;74.77
81961;BME280;71462;50.650;6.888;2023-12-28T02:13:38;99499.97;;;6.38;72.68
81961;BME280;71462;50.650;6.888;2023-12-28T02:16:09;99514.66;;;5.98;74.82
81961;BME280;71462;50.650;6.888;2023-12-28T02:18:43;99517.53;;;5.92;75.25
81961;BME280;71462;50.650;6.888;2023-12-28T02:21:12;99514.63;;;6.51;73.27
81961;BME280;71462;50.650;6.888;2023-12-28T02:23:46;99521.06;;;6.80;71.60
81961;BME280;71462;50.650;6.888;2023-12-28T02:26:15;99505.31;;;6.43;73.21
81961;BME280;71462;50.650;6.888;2023-12-28T02:28:43;99504.00;;;6.46;73.07
81961;BME280;71462;50.650;6.888;2023-12-28T02:31:14;99491.47;;;6.31;73.25
81961;BME280;71462;50.650;6.888;2023-12-28T02:33:50;99496.06;;;6.66;72.44
81961;BME280;71462;50.650;6.888;2023-12-28T02:36:23;99491.72;;;6.29;72.87
81961;BME280;71462;50.650;6.888;2023-12-28T02:38:52;99508.94;;;5.75;75.74
81961;BME280;71462;50.650;6.888;2023-12-28T02:41:24;99498.84;;;5.72;76.16
81961;BME280;71462;50.650;6.888;2023-12-28T02:43:52;99485.97;;;5.90;75.07
81961;BME280;71462;50.650;6.888;2023-12-28T02:46:20;99505.25;;;6.23;72.96
81961;BME280;71462;50.650;6.888;2023-12-28T02:48:48;99489.88;;;6.30;72.94
81961;BME280;71462;50.650;6.888;2023-12-28T02:51:16;99494.44;;;5.82;74.88
81961;BME280;71462;50.650;6.888;2023-12-28T02:53:44;99490.66;;;6.31;73.13
81961;BME280;71462;50.650;6.888;2023-12-28T02:56:12;99492.47;;;6.20;73.41
81961;BME280;71462;50.650;6.888;2023-12-28T02:58:43;99481.97;;;6.45;72.33
81961;BME280;71462;50.650;6.888;2023-12-28T03:01:11;99482.78;;;6.66;71.10
81961;BME280;71462;50.650;6.888;2023-12-28T03:03:39;99468.41;;;6.47;71.76
81961;BME280;71462;50.650;6.888;2023-12-28T03:06:07;99479.19;;;6.20;72.93
81961;BME280;71462;50.650;6.888;2023-12-28T03:08:34;99477.19;;;6.52;71.52
81961;BME280;71462;50.650;6.888;2023-12-28T03:11:02;99483.84;;;6.60;71.45
81961;BME280;71462;50.650;6.888;2023-12-28T03:13:30;99496.78;;;6.31;71.90
81961;BME280;71462;50.650;6.888;2023-12-28T03:16:00;99486.44;;;6.40;71.50
81961;BME280;71462;50.650;6.888;2023-12-28T03:18:27;99485.38;;;6.36;71.35
81961;BME280;71462;50.650;6.888;2023-12-28T03:20:55;99482.50;;;6.57;70.42
81961;BME280;71462;50.650;6.888;2023-12-28T03:23:23;99505.06;;;6.50;71.04
81961;BME280;71462;50.650;6.888;2023-12-28T03:25:50;99509.25;;;6.36;71.08
81961;BME280;71462;50.650;6.888;2023-12-28T03:28:18;99499.94;;;6.28;71.22
81961;BME280;71462;50.650;6.888;2023-12-28T03:30:46;99501.69;;;6.90;68.88
81961;BME280;71462;50.650;6.888;2023-12-28T03:33:15;99495.81;;;6.93;69.00
81961;BME280;71462;50.650;6.888;2023-12-28T03:35:43;99500.09;;;7.09;67.90
81961;BME280;71462;50.650;6.888;2023-12-28T03:38:11;99487.84;;;6.83;68.79
81961;BME280;71462;50.650;6.888;2023-12-28T03:40:38;99493.41;;;6.61;68.86
81961;BME280;71462;50.650;6.888;2023-12-28T03:43:06;99487.00;;;6.52;69.54
81961;BME280;71462;50.650;6.888;2023-12-28T03:45:34;99484.09;;;6.48;69.47
81961;BME280;71462;50.650;6.888;2023-12-28T03:48:02;99473.38;;;6.23;70.31
81961;BME280;71462;50.650;6.888;2023-12-28T03:50:32;99471.09;;;6.72;67.86
81961;BME280;71462;50.650;6.888;2023-12-28T03:53:00;99477.97;;;6.43;69.35
81961;BME280;71462;50.650;6.888;2023-12-28T03:55:27;99467.09;;;6.70;68.43
81961;BME280;71462;50.650;6.888;2023-12-28T03:57:55;99461.25;;;6.73;68.32
81961;BME280;71462;50.650;6.888;2023-12-28T04:00:23;99457.47;;;6.33;69.53
81961;BME280;71462;50.650;6.888;2023-12-28T04:02:51;99468.44;;;6.67;68.22
81961;BME280;71462;50.650;6.888;2023-12-28T04:05:19;99459.94;;;6.55;68.81
81961;BME280;71462;50.650;6.888;2023-12-28T04:07:48;99449.84;;;7.03;66.60
81961;BME280;71462;50.650;6.888;2023-12-28T04:10:28;99451.19;;;7.00;66.66
81961;BME280;71462;50.650;6.888;2023-12-28T04:12:57;99445.34;;;6.98;66.31
81961;BME280;71462;50.650;6.888;2023-12-28T04:15:26;99450.09;;;7.32;64.93
81961;BME280;71462;50.650;6.888;2023-12-28T04:17:54;99448.53;;;7.15;65.61
81961;BME280;71462;50.650;6.888;2023-12-28T04:20:22;99444.28;;;6.89;67.10
81961;BME280;71462;50.650;6.888;2023-12-28T04:22:51;99449.03;;;6.41;68.26
81961;BME280;71462;50.650;6.888;2023-12-28T04:25:19;99448.50;;;6.54;68.19
81961;BME280;71462;50.650;6.888;2023-12-28T04:27:47;99458.22;;;6.18;69.59
81961;BME280;71462;50.650;6.888;2023-12-28T04:30:15;99442.94;;;7.02;66.83
81961;BME280;71462;50.650;6.888;2023-12-28T04:32:43;99447.47;;;6.76;67.18
81961;BME280;71462;50.650;6.888;2023-12-28T04:35:11;99445.31;;;6.73;67.34
81961;BME280;71462;50.650;6.888;2023-12-28T04:37:39;99438.63;;;7.36;65.41
81961;BME280;71462;50.650;6.888;2023-12-28T04:40:09;99449.81;;;7.33;65.59
81961;BME280;71462;50.650;6.888;2023-12-28T04:42:36;99445.56;;;6.41;68.16
81961;BME280;71462;50.650;6.888;2023-12-28T04:45:05;99447.66;;;6.39;68.59
81961;BME280;71462;50.650;6.888;2023-12-28T04:47:33;99453.31;;;7.03;66.32
81961;BME280;71462;50.650;6.888;2023-12-28T04:50:01;99451.72;;;6.77;67.09
81961;BME280;71462;50.650;6.888;2023-12-28T04:52:29;99443.22;;;6.90;66.82
81961;BME280;71462;50.650;6.888;2023-12-28T04:54:57;99442.41;;;6.44;68.22
81961;BME280;71462;50.650;6.888;2023-12-28T04:57:26;99438.41;;;6.67;67.85
81961;BME280;71462;50.650;6.888;2023-12-28T04:59:57;99430.72;;;7.01;66.37
81961;BME280;71462;50.650;6.888;2023-12-28T05:02:25;99434.13;;;6.40;67.83
81961;BME280;71462;50.650;6.888;2023-12-28T05:04:52;99440.81;;;6.63;66.97
81961;BME280;71462;50.650;6.888;2023-12-28T05:07:20;99455.94;;;6.63;66.86
81961;BME280;71462;50.650;6.888;2023-12-28T05:09:48;99447.44;;;6.66;67.38
81961;BME280;71462;50.650;6.888;2023-12-28T05:12:15;99457.03;;;6.97;65.55
81961;BME280;71462;50.650;6.888;2023-12-28T05:14:44;99461.81;;;6.75;65.97
81961;BME280;71462;50.650;6.888;2023-12-28T05:17:12;99467.66;;;7.02;65.00
81961;BME280;71462;50.650;6.888;2023-12-28T05:19:40;99475.59;;;6.46;67.42
81961;BME280;71462;50.650;6.888;2023-12-28T05:22:08;99484.09;;;6.69;66.65
81961;BME280;71462;50.650;6.888;2023-12-28T05:24:37;99481.72;;;6.57;66.64
81961;BME280;71462;50.650;6.888;2023-12-28T05:27:05;99484.88;;;6.49;67.19
81961;BME280;71462;50.650;6.888;2023-12-28T05:29:33;99487.72;;;6.22;67.68
81961;BME280;71462;50.650;6.888;2023-12-28T05:32:02;99487.53;;;6.49;67.00
81961;BME280;71462;50.650;6.888;2023-12-28T05:34:30;99484.63;;;6.45;67.20
81961;BME280;71462;50.650;6.888;2023-12-28T05:36:58;99483.03;;;6.49;67.54
81961;BME280;71462;50.650;6.888;2023-12-28T05:39:27;99492.84;;;6.49;66.50
81961;BME280;71462;50.650;6.888;2023-12-28T05:41:55;99485.16;;;6.57;66.42
81961;BME280;71462;50.650;6.888;2023-12-28T05:44:22;99482.00;;;6.81;65.27
81961;BME280;71462;50.650;6.888;2023-12-28T05:46:50;99484.66;;;6.76;66.21
81961;BME280;71462;50.650;6.888;2023-12-28T05:49:20;99490.78;;;6.86;65.76
81961;BME280;71462;50.650;6.888;2023-12-28T05:51:48;99494.75;;;6.84;65.66
81961;BME280;71462;50.650;6.888;2023-12-28T05:54:16;99484.41;;;6.77;64.93
81961;BME280;71462;50.650;6.888;2023-12-28T05:56:43;99497.91;;;6.66;65.63
81961;BME280;71462;50.650;6.888;2023-12-28T05:59:11;99502.63;;;6.33;67.13
81961;BME280;71462;50.650;6.888;2023-12-28T06:01:42;99501.09;;;6.63;65.12
81961;BME280;71462;50.650;6.888;2023-12-28T06:04:10;99507.97;;;6.43;66.21
81961;BME280;71462;50.650;6.888;2023-12-28T06:06:42;99505.31;;;6.48;66.04
81961;BME280;71462;50.650;6.888;2023-12-28T06:09:10;99518.56;;;6.38;67.18
81961;BME280;71462;50.650;6.888;2023-12-28T06:11:38;99525.53;;;6.59;66.25
81961;BME280;71462;50.650;6.888;2023-12-28T06:14:06;99524.47;;;6.66;65.85
81961;BME280;71462;50.650;6.888;2023-12-28T06:16:35;99541.28;;;6.97;65.30
81961;BME280;71462;50.650;6.888;2023-12-28T06:19:02;99552.97;;;6.96;64.82
81961;BME280;71462;50.650;6.888;2023-12-28T06:21:30;99551.63;;;6.88;64.62
81961;BME280;71462;50.650;6.888;2023-12-28T06:24:00;99563.09;;;7.19;64.23
81961;BME280;71462;50.650;6.888;2023-12-28T06:26:28;99561.19;;;7.96;61.13
81961;BME280;71462;50.650;6.888;2023-12-28T06:28:55;99560.88;;;6.70;65.13
81961;BME280;71462;50.650;6.888;2023-12-28T06:31:23;99564.69;;;7.45;63.32
81961;BME280;71462;50.650;6.888;2023-12-28T06:33:51;99562.53;;;6.86;64.81
81961;BME280;71462;50.650;6.888;2023-12-28T06:36:19;99566.81;;;7.33;63.67
81961;BME280;71462;50.650;6.888;2023-12-28T06:38:46;99568.03;;;6.59;65.80
81961;BME280;71462;50.650;6.888;2023-12-28T06:41:15;99570.75;;;6.80;65.35
81961;BME280;71462;50.650;6.888;2023-12-28T06:43:43;99558.22;;;6.65;65.85
81961;BME280;71462;50.650;6.888;2023-12-28T06:46:11;99564.97;;;7.23;63.92
81961;BME280;71462;50.650;6.888;2023-12-28T06:48:38;99559.00;;;6.66;66.15
81961;BME280;71462;50.650;6.888;2023-12-28T06:51:08;99555.81;;;6.58;66.03
81961;BME280;71462;50.650;6.888;2023-12-28T06:53:35;99560.91;;;6.80;64.85
81961;BME280;71462;50.650;6.888;2023-12-28T06:56:03;99550.13;;;6.29;67.56
81961;BME280;71462;50.650;6.888;2023-12-28T06:58:32;99561.88;;;6.49;66.42
81961;BME280;71462;50.650;6.888;2023-12-28T07:01:02;99561.88;;;6.44;66.33
81961;BME280;71462;50.650;6.888;2023-12-28T07:03:30;99568.69;;;7.28;63.85
81961;BME280;71462;50.650;6.888;2023-12-28T07:05:59;99571.84;;;6.99;64.29
81961;BME280;71462;50.650;6.888;2023-12-28T07:08:27;99576.91;;;7.06;64.66
81961;BME280;71462;50.650;6.888;2023-12-28T07:10:57;99578.28;;;7.39;62.64
81961;BME280;71462;50.650;6.888;2023-12-28T07:13:27;99574.78;;;7.33;63.21
81961;BME280;71462;50.650;6.888;2023-12-28T07:15:57;99578.50;;;7.68;61.57
81961;BME280;71462;50.650;6.888;2023-12-28T07:18:30;99572.66;;;7.61;61.24
81961;BME280;71462;50.650;6.888;2023-12-28T07:20:58;99571.88;;;7.35;62.75
81961;BME280;71462;50.650;6.888;2023-12-28T07:23:26;99571.66;;;6.38;65.66
81961;BME280;71462;50.650;6.888;2023-12-28T07:25:54;99565.13;;;6.66;65.37
81961;BME280;71462;50.650;6.888;2023-12-28T07:28:22;99570.16;;;6.63;65.77
81961;BME280;71462;50.650;6.888;2023-12-28T07:30:49;99570.22;;;6.83;65.44
81961;BME280;71462;50.650;6.888;2023-12-28T07:33:18;99575.75;;;6.71;66.01
81961;BME280;71462;50.650;6.888;2023-12-28T07:35:47;99574.25;;;7.06;64.53
81961;BME280;71462;50.650;6.888;2023-12-28T07:38:15;99571.81;;;6.79;64.90
81961;BME280;71462;50.650;6.888;2023-12-28T07:40:44;99570.94;;;6.58;65.94
81961;BME280;71462;50.650;6.888;2023-12-28T07:43:12;99576.09;;;6.95;64.66
81961;BME280;71462;50.650;6.888;2023-12-28T07:45:39;99576.66;;;7.12;63.89
81961;BME280;71462;50.650;6.888;2023-12-28T07:48:08;99578.72;;;6.85;64.64
81961;BME280;71462;50.650;6.888;2023-12-28T07:50:37;99585.63;;;6.76;65.04
81961;BME280;71462;50.650;6.888;2023-12-28T07:53:07;99595.16;;;6.14;67.28
81961;BME280;71462;50.650;6.888;2023-12-28T07:55:37;99588.81;;;6.83;65.15
81961;BME280;71462;50.650;6.888;2023-12-28T07:58:05;99598.78;;;6.45;66.42
81961;BME280;71462;50.650;6.888;2023-12-28T08:00:33;99596.94;;;6.51;66.63
81961;BME280;71462;50.650;6.888;2023-12-28T08:03:01;99602.13;;;7.03;64.13
81961;BME280;71462;50.650;6.888;2023-12-28T08:05:28;99605.56;;;6.83;65.47
81961;BME280;71462;50.650;6.888;2023-12-28T08:08:03;99608.03;;;6.38;66.68
81961;BME280;71462;50.650;6.888;2023-12-28T08:10:30;99610.75;;;6.53;66.09
81961;BME280;71462;50.650;6.888;2023-12-28T08:12:58;99619.25;;;6.50;66.36
81961;BME280;71462;50.650;6.888;2023-12-28T08:15:26;99634.44;;;6.70;65.60
81961;BME280;71462;50.650;6.888;2023-12-28T08:17:54;99618.56;;;6.75;65.86
81961;BME280;71462;50.650;6.888;2023-12-28T08:20:22;99623.81;;;6.65;65.30
81961;BME280;71462;50.650;6.888;2023-12-28T08:22:52;99628.06;;;6.60;65.53
81961;BME280;71462;50.650;6.888;2023-12-28T08:25:41;99632.22;;;7.29;63.63
81961;BME280;71462;50.650;6.888;2023-12-28T08:28:09;99627.38;;;6.96;63.85
81961;BME280;71462;50.650;6.888;2023-12-28T08:30:36;99619.63;;;6.74;65.63
81961;BME280;71462;50.650;6.888;2023-12-28T08:33:04;99627.47;;;6.48;65.88
81961;BME280;71462;50.650;6.888;2023-12-28T08:35:32;99628.41;;;6.84;64.84
81961;BME280;71462;50.650;6.888;2023-12-28T08:38:00;99632.97;;;6.32;66.53
81961;BME280;71462;50.650;6.888;2023-12-28T08:40:28;99637.75;;;7.02;64.24
81961;BME280;71462;50.650;6.888;2023-12-28T08:42:57;99648.16;;;6.41;65.90
81961;BME280;71462;50.650;6.888;2023-12-28T08:45:25;99645.59;;;6.62;65.12
81961;BME280;71462;50.650;6.888;2023-12-28T08:47:53;99647.38;;;6.46;65.89
81961;BME280;71462;50.650;6.888;2023-12-28T08:50:20;99645.41;;;6.78;64.92
81961;BME280;71462;50.650;6.888;2023-12-28T08:52:48;99646.03;;;7.06;63.78
81961;BME280;71462;50.650;6.888;2023-12-28T08:55:16;99644.16;;;7.06;63.45
81961;BME280;71462;50.650;6.888;2023-12-28T08:57:44;99634.66;;;6.53;65.28
81961;BME280;71462;50.650;6.888;2023-12-28T09:00:14;99640.72;;;7.16;63.35
81961;BME280;71462;50.650;6.888;2023-12-28T09:02:43;99642.38;;;6.59;64.85
81961;BME280;71462;50.650;6.888;2023-12-28T09:05:11;99651.19;;;6.65;64.50
81961;BME280;71462;50.650;6.888;2023-12-28T09:07:38;99648.84;;;6.74;63.85
81961;BME280;71462;50.650;6.888;2023-12-28T09:10:09;99643.94;;;7.28;62.35
81961;BME280;71462;50.650;6.888;2023-12-28T09:12:38;99652.94;;;7.07;63.55
81961;BME280;71462;50.650;6.888;2023-12-28T09:15:06;99648.16;;;7.19;62.60
81961;BME280;71462;50.650;6.888;2023-12-28T09:17:35;99658.06;;;7.69;61.02
81961;BME280;71462;50.650;6.888;2023-12-28T09:20:04;99658.06;;;7.44;62.18
81961;BME280;71462;50.650;6.888;2023-12-28T09:22:33;99660.72;;;7.39;61.80
81961;BME280;71462;50.650;6.888;2023-12-28T09:25:02;99664.44;;;7.53;61.30
81961;BME280;71462;50.650;6.888;2023-12-28T09:27:30;99670.31;;;7.96;60.81
81961;BME280;71462;50.650;6.888;2023-12-28T09:29:58;99677.22;;;8.27;59.31
81961;BME280;71462;50.650;6.888;2023-12-28T09:32:25;99673.00;;;7.86;59.73
81961;BME280;71462;50.650;6.888;2023-12-28T09:34:54;99672.34;;;8.55;58.48
81961;BME280;71462;50.650;6.888;2023-12-28T09:37:22;99671.09;;;7.56;61.23
81961;BME280;71462;50.650;6.888;2023-12-28T09:39:50;99663.41;;;7.84;59.47
81961;BME280;71462;50.650;6.888;2023-12-28T09:42:25;99670.13;;;8.82;57.28
81961;BME280;71462;50.650;6.888;2023-12-28T09:44:54;99681.06;;;8.81;55.61
81961;BME280;71462;50.650;6.888;2023-12-28T09:47:21;99684.38;;;8.42;57.71
81961;BME280;71462;50.650;6.888;2023-12-28T09:49:49;99685.69;;;8.50;57.60
81961;BME280;71462;50.650;6.888;2023-12-28T09:52:19;99690.53;;;8.22;59.03
81961;BME280;71462;50.650;6.888;2023-12-28T09:54:46;99687.09;;;8.11;59.25
81961;BME280;71462;50.650;6.888;2023-12-28T09:57:14;99691.91;;;7.79;59.92
81961;BME280;71462;50.650;6.888;2023-12-28T09:59:47;99685.75;;;7.94;59.95
81961;BME280;71462;50.650;6.888;2023-12-28T10:02:15;99688.91;;;8.41;58.59
81961;BME280;71462;50.650;6.888;2023-12-28T10:04:43;99689.50;;;8.13;59.17
81961;BME280;71462;50.650;6.888;2023-12-28T10:07:11;99687.25;;;8.61;57.62
81961;BME280;71462;50.650;6.888;2023-12-28T10:09:40;99678.72;;;9.28;55.15
81961;BME280;71462;50.650;6.888;2023-12-28T10:12:09;99682.00;;;8.40;57.58
81961;BME280;71462;50.650;6.888;2023-12-28T10:14:37;99685.09;;;8.73;56.71
81961;BME280;71462;50.650;6.888;2023-12-28T10:17:04;99687.88;;;8.17;57.41
81961;BME280;71462;50.650;6.888;2023-12-28T10:19:32;99678.16;;;8.77;56.29
81961;BME280;71462;50.650;6.888;2023-12-28T10:22:00;99681.81;;;8.91;56.19
81961;BME280;71462;50.650;6.888;2023-12-28T10:24:29;99670.44;;;9.30;54.90
81961;BME280;71462;50.650;6.888;2023-12-28T10:26:58;99678.34;;;8.91;55.49
81961;BME280;71462;50.650;6.888;2023-12-28T10:29:28;99679.25;;;8.61;56.54
81961;BME280;71462;50.650;6.888;2023-12-28T10:31:56;99681.84;;;8.81;56.00
81961;BME280;71462;50.650;6.888;2023-12-28T10:34:29;99674.53;;;8.37;56.64
81961;BME280;71462;50.650;6.888;2023-12-28T10:36:59;99675.84;;;8.45;56.76
81961;BME280;71462;50.650;6.888;2023-12-28T10:39:31;99675.94;;;8.94;55.11
81961;BME280;71462;50.650;6.888;2023-12-28T10:42:03;99668.53;;;9.75;52.60
81961;BME280;71462;50.650;6.888;2023-12-28T10:44:35;99653.38;;;9.65;52.52
81961;BME280;71462;50.650;6.888;2023-12-28T10:47:15;99650.66;;;8.82;54.36
81961;BME280;71462;50.650;6.888;2023-12-28T10:49:53;99647.00;;;8.72;54.50
81961;BME280;71462;50.650;6.888;2023-12-28T10:52:29;99635.47;;;8.82;54.89
81961;BME280;71462;50.650;6.888;2023-12-28T10:55:09;99640.97;;;8.41;54.95
81961;BME280;71462;50.650;6.888;2023-12-28T10:57:53;99615.63;;;8.49;55.14
81961;BME280;71462;50.650;6.888;2023-12-28T11:00:30;99615.22;;;8.11;56.11
81961;BME280;71462;50.650;6.888;2023-12-28T11:03:02;99614.00;;;8.53;55.52
81961;BME280;71462;50.650;6.888;2023-12-28T11:05:32;99593.28;;;8.94;54.76
81961;BME280;71462;50.650;6.888;2023-12-28T11:08:02;99601.00;;;9.01;53.75
81961;BME280;71462;50.650;6.888;2023-12-28T11:10:33;99591.41;;;8.35;54.99
81961;BME280;71462;50.650;6.888;2023-12-28T11:13:05;99599.59;;;8.59;54.68
81961;BME280;71462;50.650;6.888;2023-12-28T11:15:34;99600.63;;;8.63;55.17
81961;BME280;71462;50.650;6.888;2023-12-28T11:18:03;99593.88;;;8.22;56.72
81961;BME280;71462;50.650;6.888;2023-12-28T11:20:31;99586.69;;;8.22;56.08
81961;BME280;71462;50.650;6.888;2023-12-28T11:23:00;99584.25;;;8.36;55.34
81961;BME280;71462;50.650;6.888;2023-12-28T11:25:34;99580.53;;;8.37;54.86
81961;BME280;71462;50.650;6.888;2023-12-28T11:28:10;99587.03;;;8.65;54.26
81961;BME280;71462;50.650;6.888;2023-12-28T11:30:38;99583.31;;;8.61;54.03
81961;BME280;71462;50.650;6.888;2023-12-28T11:33:09;99586.00;;;9.10;53.69
81961;BME280;71462;50.650;6.888;2023-12-28T11:35:39;99595.50;;;8.18;56.06
81961;BME280;71462;50.650;6.888;2023-12-28T11:38:08;99591.44;;;8.30;55.79
81961;BME280;71462;50.650;6.888;2023-12-28T11:40:40;99588.81;;;8.85;54.37
81961;BME280;71462;50.650;6.888;2023-12-28T11:43:21;99599.56;;;8.64;54.35
81961;BME280;71462;50.650;6.888;2023-12-28T11:45:51;99576.50;;;8.39;54.24
81961;BME280;71462;50.650;6.888;2023-12-28T11:48:22;99590.00;;;8.58;54.09
81961;BME280;71462;50.650;6.888;2023-12-28T11:50:54;99571.19;;;8.89;53.00
81961;BME280;71462;50.650;6.888;2023-12-28T11:53:23;99578.00;;;8.61;54.83
81961;BME280;71462;50.650;6.888;2023-12-28T11:55:50;66312.28;;;-149.03;100.00
81961;BME280;71462;50.650;6.888;2023-12-28T11:58:18;99583.97;;;8.32;55.12
81961;BME280;71462;50.650;6.888;2023-12-28T12:00:47;99580.75;;;8.45;54.09
81961;BME280;71462;50.650;6.888;2023-12-28T12:03:15;99594.88;;;8.46;54.42
81961;BME280;71462;50.650;6.888;2023-12-28T12:05:43;99579.78;;;8.81;53.51
81961;BME280;71462;50.650;6.888;2023-12-28T12:08:10;99586.22;;;7.95;55.90
81961;BME280;71462;50.650;6.888;2023-12-28T12:10:40;99580.56;;;8.22;55.62
81961;BME280;71462;50.650;6.888;2023-12-28T12:13:10;99579.56;;;8.72;54.49
81961;BME280;71462;50.650;6.888;2023-12-28T12:15:38;99582.63;;;8.35;54.64
81961;BME280;71462;50.650;6.888;2023-12-28T12:18:07;99573.31;;;8.32;54.55
81961;BME280;71462;50.650;6.888;2023-12-28T12:20:35;99578.22;;;8.74;54.66
81961;BME280;71462;50.650;6.888;2023-12-28T12:23:05;99571.72;;;8.91;53.93
81961;BME280;71462;50.650;6.888;2023-12-28T12:25:32;99571.00;;;8.75;54.02
81961;BME280;71462;50.650;6.888;2023-12-28T12:28:00;99570.50;;;8.73;53.83
81961;BME280;71462;50.650;6.888;2023-12-28T12:30:28;99573.81;;;8.50;54.80
81961;BME280;71462;50.650;6.888;2023-12-28T12:32:57;99572.41;;;8.62;54.87
81961;BME280;71462;50.650;6.888;2023-12-28T12:35:28;99573.09;;;8.24;55.30
81961;BME280;71462;50.650;6.888;2023-12-28T12:37:58;99565.94;;;8.19;54.98
81961;BME280;71462;50.650;6.888;2023-12-28T12:40:25;99571.72;;;8.41;54.00
81961;BME280;71462;50.650;6.888;2023-12-28T12:42:53;99566.50;;;8.11;54.97
81961;BME280;71462;50.650;6.888;2023-12-28T12:45:24;99566.34;;;8.46;54.15
81961;BME280;71462;50.650;6.888;2023-12-28T12:47:52;99564.59;;;8.17;54.29
81961;BME280;71462;50.650;6.888;2023-12-28T12:50:20;99568.41;;;7.90;55.70
81961;BME280;71462;50.650;6.888;2023-12-28T12:52:49;99562.75;;;8.02;55.27
81961;BME280;71462;50.650;6.888;2023-12-28T12:55:17;99536.16;;;7.97;54.62
81961;BME280;71462;50.650;6.888;2023-12-28T12:57:45;99548.28;;;8.33;54.12
81961;BME280;71462;50.650;6.888;2023-12-28T13:00:16;99550.66;;;8.89;52.59
81961;BME280;71462;50.650;6.888;2023-12-28T13:02:44;99546.00;;;9.10;51.46
81961;BME280;71462;50.650;6.888;2023-12-28T13:05:11;99548.91;;;8.74;53.01
81961;BME280;71462;50.650;6.888;2023-12-28T13:07:39;99548.25;;;9.32;50.95
81961;BME280;71462;50.650;6.888;2023-12-28T13:10:09;99558.09;;;8.92;52.25
81961;BME280;71462;50.650;6.888;2023-12-28T13:12:38;99550.19;;;9.21;51.40
81961;BME280;71462;50.650;6.888;2023-12-28T13:15:08;99555.63;;;9.06;51.77
81961;BME280;71462;50.650;6.888;2023-12-28T13:17:39;99544.97;;;9.06;51.95